25. Juni 2022

Uhrzeit Code Wetter Temp. Sichtweite Wolkendecke Wind METAR/SPECI
3:30 am
V
66 °F 6¼ mi+ - 100° 100° 3 kt METAR LFBO 250130Z AUTO 10003KT 070V140 CAVOK 19/14 Q1013 TEMPO RA BKN012 BKN025
3:00 am
V
68 °F 6¼ mi+ - 090° 090° 3 kt METAR LFBO 250100Z AUTO 09003KT CAVOK 20/14 Q1013 TEMPO RA BKN012 BKN025
2:30 am
V
68 °F 6¼ mi+ - 090° 090° 3 kt METAR LFBO 250030Z AUTO 09003KT CAVOK 20/14 Q1013 TEMPO RA BKN012 BKN025
2:00 am
V
68 °F 6¼ mi+ - 100° 100° 3 kt METAR LFBO 250000Z AUTO 10003KT CAVOK 20/14 Q1014 TEMPO RA BKN012 BKN025
1:30 am
V
68 °F 6¼ mi+ - Var Var 2 kt METAR LFBO 242330Z AUTO VRB02KT CAVOK 20/14 Q1014 TEMPO RA BKN012 BKN025
1:00 am
V
68 °F 6¼ mi+ - Var Var 3 kt METAR LFBO 242300Z AUTO VRB03KT CAVOK 20/14 Q1014 NOSIG
12:30 am
V
70 °F 6¼ mi+ - 050° 050° 3 kt METAR LFBO 242230Z AUTO 05003KT CAVOK 21/14 Q1014 NOSIG
12:00 am
V
72 °F 6¼ mi+ - 060° 060° 4 kt METAR LFBO 242200Z AUTO 06004KT CAVOK 22/14 Q1014 NOSIG

24. Juni 2022

Uhrzeit Code Wetter Temp. Sichtweite Wolkendecke Wind METAR/SPECI
11:30 pm
V
72 °F 6¼ mi+ - 070° 070° 4 kt METAR LFBO 242130Z AUTO 07004KT 040V100 CAVOK 22/14 Q1014 NOSIG
11:00 pm
V
72 °F 6¼ mi+ - 050° 050° 3 kt METAR LFBO 242100Z AUTO 05003KT 020V080 CAVOK 22/14 Q1014 NOSIG
10:30 pm
V
73 °F 6¼ mi+ - 040° 040° 4 kt METAR LFBO 242030Z AUTO 04004KT 010V070 CAVOK 23/14 Q1014 NOSIG
10:00 pm
V
73 °F 6¼ mi+ - 360° 360° 5 kt METAR LFBO 242000Z AUTO 36005KT CAVOK 23/14 Q1014 NOSIG
9:30 pm
V
73 °F 6¼ mi+ - 360° 360° 6 kt METAR LFBO 241930Z AUTO 36006KT CAVOK 23/14 Q1014 NOSIG
9:00 pm
V
75 °F 6¼ mi+ - 360° 360° 4 kt METAR LFBO 241900Z AUTO 36004KT 320V030 CAVOK 24/13 Q1014 NOSIG
8:30 pm
V
75 °F 6¼ mi+ - 350° 350° 7 kt METAR LFBO 241830Z AUTO 35007KT 300V030 CAVOK 24/13 Q1013 NOSIG
8:00 pm
V
77 °F 6¼ mi+ - 350° 350° 6 kt METAR LFBO 241800Z AUTO 35006KT 320V030 CAVOK 25/13 Q1013 NOSIG
7:30 pm
V
79 °F 6¼ mi+ - 330° 330° 7 kt METAR LFBO 241730Z AUTO 33007KT 280V020 CAVOK 26/13 Q1013 NOSIG
7:00 pm
V
77 °F 6¼ mi+ - 350° 350° 5 kt METAR LFBO 241700Z AUTO 35005KT 300V040 CAVOK 25/13 Q1013 NOSIG
6:30 pm
V
77 °F 6¼ mi+ - 340° 340° 6 kt METAR LFBO 241630Z AUTO 34006KT 280V050 CAVOK 25/13 Q1013 NOSIG
6:00 pm
V
77 °F 6¼ mi+ - 310° 310° 9 kt METAR LFBO 241600Z AUTO 31009KT 280V350 CAVOK 25/13 Q1013 NOSIG
5:30 pm
V
77 °F 6¼ mi+ - 290° 290° 4 kt METAR LFBO 241530Z AUTO 29004KT 230V320 CAVOK 25/13 Q1013 NOSIG
5:00 pm
V
77 °F 6¼ mi+ - 350° 350° 5 kt METAR LFBO 241500Z AUTO 35005KT 310V050 CAVOK 25/13 Q1014 NOSIG
4:30 pm
V
79 °F 6¼ mi+ 6.000 ft 300° 300° 7 kt METAR LFBO 241430Z AUTO 30007KT 240V010 9999 SCT049 BKN060 26/14 Q1014 NOSIG
4:00 pm
V
79 °F 6¼ mi+ - 280° 280° 7 kt METAR LFBO 241400Z AUTO 28007KT 210V340 9999 SCT047 SCT054 26/14 Q1014 NOSIG
3:30 pm
V
75 °F 6¼ mi+ 6.000 ft 250° 250° 6 kt METAR LFBO 241330Z AUTO 25006KT 180V340 9999 FEW041 SCT047 BKN060 24/14 Q1014 NOSIG
3:00 pm
V
75 °F 6¼ mi+ - 250° 250° 8 kt METAR LFBO 241300Z AUTO 25008KT 210V290 9999 FEW041 SCT058 24/14 Q1014 NOSIG
2:30 pm
V
77 °F 6¼ mi+ 6.600 ft 250° 250° 7 kt METAR LFBO 241230Z AUTO 25007KT 200V290 9999 SCT040 SCT050 BKN066 25/15 Q1014 NOSIG
2:00 pm
V
73 °F 6¼ mi+ - 270° 270° 6 kt METAR LFBO 241200Z AUTO 27006KT 220V320 9999 FEW030 SCT036 23/15 Q1015 NOSIG
1:30 pm
V
73 °F 6¼ mi+ 4.400 ft 260° 260° 7 kt METAR LFBO 241130Z AUTO 26007KT 210V320 9999 FEW030 SCT035 BKN044 23/15 Q1015 NOSIG
1:00 pm
M
72 °F 6¼ mi+ 2.800 ft 290° 290° 5 kt METAR LFBO 241100Z AUTO 29005KT 190V350 9999 BKN028 BKN033 BKN041 22/15 Q1015 NOSIG
12:30 pm
V
70 °F 6¼ mi+ 5.400 ft 240° 240° 5 kt METAR LFBO 241030Z AUTO 24005KT 170V270 9999 FEW019 SCT025 BKN054 21/16 Q1015 NOSIG
12:00 pm
M
68 °F 6¼ mi+ 1.700 ft 240° 240° 5 kt METAR LFBO 241000Z AUTO 24005KT 180V310 9999 BKN017 BKN029 BKN046 20/16 Q1015 NOSIG
11:30 am
M
66 °F 6¼ mi+ 1.600 ft 220° 220° 5 kt METAR LFBO 240930Z AUTO 22005KT 140V260 9999 BKN016 BKN023 BKN054 19/16 Q1015 NOSIG
11:00 am
V
66 °F 6¼ mi+ 4.700 ft 220° 220° 6 kt METAR LFBO 240900Z AUTO 22006KT 170V270 9999 FEW012 BKN047 OVC056 19/15 Q1015 TEMPO VRB15G25KT 4000 SHRA BKN010 FEW070CB
10:30 am
V
64 °F 6¼ mi+ 5.000 ft 220° 220° 6 kt METAR LFBO 240830Z AUTO 22006KT 9999 FEW008/// BKN050/// BKN064/// ///TCU 18/16 Q1015 TEMPO VRB15G25KT 4000 SHRA BKN010 FEW070CB
10:00 am
V
61 °F 6¼ mi+ 9.600 ft 190° 190° 6 kt METAR LFBO 240800Z AUTO 19006KT 9999 FEW035/// OVC096/// ///TCU 16/15 Q1015 TEMPO VRB15G25KT 4000 SHRA BKN010 FEW070CB
9:30 am
V
61 °F 6¼ mi+ 9.000 ft 200° 200° 5 kt METAR LFBO 240730Z AUTO 20005KT 9999 FEW036/// OVC090/// ///CB 16/15 Q1015 TEMPO VRB15G25KT 4000 SHRA BKN010 FEW070CB
9:00 am
I
61 °F 3 mi 9.000 ft 280° 280° 6 kt METAR LFBO 240700Z AUTO 28006KT 240V330 4900 RA BR FEW019/// SCT070/// OVC090/// //////CB 16/14 Q1015 TEMPO VRB15G25KT BKN010 FEW070CB
8:30 am
V
61 °F 6¼ mi+ 8.800 ft 280° 280° 7 kt METAR LFBO 240630Z AUTO 28007KT 9999 -RA FEW033/// BKN088/// OVC130/// //////CB 16/14 Q1015 TEMPO VRB15G25KT 4000 SHRA BKN010 FEW070CB
8:00 am
V
59 °F 6¼ mi+ - 250° 250° 4 kt METAR LFBO 240600Z AUTO 25004KT 210V280 9999 -RA //////CB 15/14 Q1015 TEMPO VRB15G25KT 4000 SHRA BKN010 FEW070CB
7:30 am
V
61 °F 6¼ mi+ 9.400 ft 290° 290° 8 kt METAR LFBO 240530Z AUTO 29008KT 250V320 9999 -RA VCTS FEW011/// OVC094/// //////CB 16/14 Q1015 TEMPO VRB15G25KT SHRA BKN013 FEW070CB
7:00 am
L
63 °F ⅞ mi 3.000 ft 280° 280° 11 kt METAR LFBO 240500Z AUTO 28011KT 2500 1400 R14R/1900D R32L/P2000 R14L/1900D R32R/1900D +TSRA BR FEW009/// SCT013/// BKN030/// //////CB 17/16 Q1015 TEMPO VRB15G25KT BKN013 FEW070CB BECMG 9999 NSW
6:30 am
V
63 °F 6¼ mi+ 4.400 ft Var Var 2 kt METAR LFBO 240430Z AUTO VRB02KT 9999 SCT010/// OVC044/// //////TCU 17/16 Q1014 TEMPO VRB15G25KT SHRA BKN013 FEW070CB
6:00 am
V
63 °F 6¼ mi+ 4.400 ft Var Var 3 kt METAR LFBO 240400Z AUTO VRB03KT 9999 FEW010/// BKN044/// OVC050/// //////TCU 17/16 Q1013 TEMPO VRB15G25KT SHRA BKN013 FEW070CB
5:30 am
V
63 °F 6¼ mi+ 4.300 ft 310° 310° 6 kt METAR LFBO 240330Z AUTO 31006KT 9999 SCT010 SCT017 BKN043 17/16 Q1013 BECMG BKN020TCU
5:00 am
V
63 °F 6¼ mi+ 4.400 ft 320° 320° 8 kt METAR LFBO 240300Z AUTO 32008KT 9999 VCTS FEW016/// BKN044/// BKN068/// //////CB 17/16 Q1013 TEMPO 4000 SHRA
4:30 am
L
63 °F ¾ mi 1.200 ft 280° 280° 13 kt METAR LFBO 240230Z AUTO 28013KT 250V310 1300 R14R/1100N R32L/1400U R14L/1200U R32R/1600U +TSRA BR SCT008/// BKN012/// BKN017/// //////CB 17/16 Q1014 BECMG 9999 NSW BKN020TCU
4:00 am
V
64 °F 6¼ mi+ 5.200 ft Var Var 2 kt METAR LFBO 240200Z AUTO VRB02KT 9999 FEW010/// BKN052/// OVC070/// //////CB 18/16 Q1013 TEMPO 4000 SHRA
3:30 am
V
64 °F 6¼ mi+ 5.400 ft 330° 330° 4 kt METAR LFBO 240130Z AUTO 33004KT 310V010 9999 FEW008/// SCT025/// BKN054/// //////CB 18/17 Q1014 TEMPO 4000 SHRA
3:00 am
V
64 °F 6¼ mi+ 5.800 ft 300° 300° 5 kt METAR LFBO 240100Z AUTO 30005KT 9999 SCT024/// OVC058/// //////CB 18/17 Q1014 TEMPO 4000 SHRA
2:30 am
V
64 °F 6¼ mi+ 6.400 ft 290° 290° 5 kt METAR LFBO 240030Z AUTO 29005KT 9999 FEW010/// BKN064/// OVC082/// ///CB 18/17 Q1014 TEMPO 4000 SHRA
2:00 am
V
64 °F 6¼ mi+ 6.200 ft 310° 310° 5 kt METAR LFBO 240000Z AUTO 31005KT 9999 -RA FEW020/// BKN062/// BKN078/// //////CB 18/17 Q1014 TEMPO 4000 SHRA
1:30 am
M
66 °F 6¼ mi+ 1.900 ft 270° 270° 5 kt METAR LFBO 232330Z AUTO 27005KT 9999 SCT011/// BKN019/// BKN024/// ///CB 19/17 Q1015 BECMG 33010KT
1:00 am
V
66 °F 6¼ mi+ 6.000 ft 230° 230° 5 kt METAR LFBO 232300Z AUTO 23005KT 9999 SCT015/// BKN060/// BKN092/// ///CB 19/17 Q1015 TEMPO 4000 TSRA BECMG 33010KT
12:30 am
V
66 °F 6¼ mi+ 5.800 ft 220° 220° 4 kt METAR LFBO 232230Z AUTO 22004KT 9999 -RA FEW010/// BKN058/// BKN072/// //////CB 19/17 Q1015 TEMPO SHRA BECMG 33010KT
12:00 am
V
66 °F 6¼ mi+ - 190° 190° 4 kt METAR LFBO 232200Z AUTO 19004KT 170V230 9999 ///CB 19/18 Q1014 TEMPO SHRA BECMG 33010KT

23. Juni 2022

Uhrzeit Code Wetter Temp. Sichtweite Wolkendecke Wind METAR/SPECI
11:30 pm
V
66 °F 6¼ mi+ - 110° 110° 4 kt METAR LFBO 232130Z AUTO 11004KT 080V140 CAVOK 19/17 Q1015 TEMPO SHRA BKN035TCU BECMG 33010KT
11:00 pm
V
66 °F 6¼ mi+ 6.000 ft 020° 020° 5 kt METAR LFBO 232100Z AUTO 02005KT 340V070 9999 FEW038 BKN060 BKN084 19/17 Q1014 TEMPO SHRA BKN035TCU
10:30 pm
V
66 °F 6¼ mi+ - 340° 340° 5 kt METAR LFBO 232030Z AUTO 34005KT 310V020 CAVOK 19/17 Q1015 TEMPO SHRA BKN035TCU
10:00 pm
V
66 °F 6¼ mi+ 4.200 ft 290° 290° 6 kt METAR LFBO 232000Z AUTO 29006KT 260V330 9999 SCT034/// BKN042/// BKN052/// //////CB 19/18 Q1014 TEMPO 32020G35KT 2000 TSRAGR
9:30 pm
V
66 °F 6¼ mi+ 9.000 ft 270° 270° 6 kt METAR LFBO 231930Z AUTO 27006KT 9999 -RA FEW040/// BKN090/// OVC110/// ///CB 19/17 Q1014 TEMPO 2000 TSRAGR BECMG 33010KT
9:00 pm
V
66 °F 6¼ mi+ 9.800 ft 220° 220° 5 kt METAR LFBO 231900Z AUTO 22005KT 9999 VCTS FEW046/// BKN098/// BKN110/// //////CB 19/17 Q1014 TEMPO 32020G35KT 2000 TSRAGR
8:30 pm
I
66 °F 1⅛ mi 6.000 ft 250° 250° 13 - 25 kt METAR LFBO 231830Z AUTO 25013G25KT 220V300 1900 R32L/1100U R32R/1300D +TSRA BR FEW018/// SCT035/// BKN060/// //////CB 19/17 Q1012 TEMPO 32020G35KT TSRAGR
8:00 pm
V
70 °F 6¼ mi+ - 140° 140° 4 kt METAR LFBO 231800Z AUTO 14004KT 110V190 9999 VCTS ///CB 21/18 Q1011 TEMPO 32020G35KT 2000 TSRAGR
7:30 pm
I
73 °F 2⅝ mi - Var Var 4 kt METAR LFBO 231730Z AUTO VRB04KT 9999 4200 -TSRA //////CB 23/16 Q1011 TEMPO 32020G35KT 2000 TSRAGR
7:00 pm
V
79 °F 6¼ mi+ - 010° 010° 7 kt METAR LFBO 231700Z AUTO 01007KT 340V040 9999 TS //////CB 26/14 Q1010 TEMPO 32020G35KT 2000 TSRAGR
6:30 pm
V
79 °F 6¼ mi+ - 010° 010° 7 kt METAR LFBO 231630Z AUTO 01007KT 310V050 9999 VCTS ///CB 26/14 Q1010 TEMPO 32020G35KT 2000 TSRAGR
6:00 pm
V
82 °F 6¼ mi+ - 360° 360° 10 kt METAR LFBO 231600Z AUTO 36010KT 9999 ///CB 28/15 Q1010 TEMPO 32020G35KT 2000 TSRAGR
5:30 pm
V
81 °F 6¼ mi+ - 330° 330° 9 kt METAR LFBO 231530Z AUTO 33009KT 290V020 CAVOK 27/14 Q1011 TEMPO 32020G35KT 2000 TSRAGR SCT020 BKN040CB
5:00 pm
V
82 °F 6¼ mi+ - 350° 350° 9 kt METAR LFBO 231500Z AUTO 35009KT 310V030 CAVOK 28/14 Q1010 TEMPO 32020G35KT 2000 TSRAGR SCT020 BKN040CB
4:30 pm
V
82 °F 6¼ mi+ - 020° 020° 10 kt METAR LFBO 231430Z AUTO 02010KT 340V060 CAVOK 28/14 Q1010 TEMPO 32020G35KT 2000 TSRAGR SCT020 BKN040CB
4:00 pm
V
82 °F 6¼ mi+ - 020° 020° 8 kt METAR LFBO 231400Z AUTO 02008KT 340V070 CAVOK 28/15 Q1010 TEMPO 32020G35KT 2000 TSRAGR SCT020 BKN040CB
3:30 pm
V
81 °F 6¼ mi+ - 030° 030° 9 kt METAR LFBO 231330Z AUTO 03009KT 350V070 CAVOK 27/16 Q1010 TEMPO 32020G35KT 2000 TSRAGR SCT020 BKN040CB
3:00 pm
V
81 °F 6¼ mi+ - 350° 350° 7 kt METAR LFBO 231300Z AUTO 35007KT 300V030 CAVOK 27/16 Q1010 TEMPO SHRA BKN035TCU
2:30 pm
V
79 °F 6¼ mi+ - 360° 360° 10 kt METAR LFBO 231230Z AUTO 36010KT 300V050 CAVOK 26/15 Q1010 TEMPO SHRA BKN035TCU
2:00 pm
V
81 °F 6¼ mi+ - 330° 330° 10 kt METAR LFBO 231200Z AUTO 33010KT 300V020 CAVOK 27/16 Q1010 TEMPO SHRA BKN035TCU
1:30 pm
V
79 °F 6¼ mi+ - 350° 350° 6 kt METAR LFBO 231130Z AUTO 35006KT 290V060 CAVOK 26/16 Q1010 TEMPO VRB15G25KT 4000 TSRA SCT050CB
1:00 pm
V
77 °F 6¼ mi+ - 330° 330° 10 kt METAR LFBO 231100Z AUTO 33010KT 310V010 9999 FEW024 25/17 Q1010 TEMPO VRB15G25KT 4000 TSRA SCT050CB
12:30 pm
V
77 °F 6¼ mi+ 3.400 ft 290° 290° 17 kt METAR LFBO 231030Z AUTO 29017KT 9999 FEW025/// BKN034/// BKN050/// //////CB 25/17 Q1011 TEMPO VRB15G25KT 4000 TSRA
12:00 pm
V
75 °F 6¼ mi+ 3.200 ft 260° 260° 14 kt METAR LFBO 231000Z AUTO 26014KT 9999 OVC032/// ///CB 24/17 Q1011 TEMPO VRB15G25KT 4000 TSRA
11:30 am
V
77 °F 6¼ mi+ 3.200 ft 240° 240° 5 kt METAR LFBO 230930Z AUTO 24005KT 210V300 9999 FEW007 OVC032 25/17 Q1010 TEMPO VRB15G25KT 4000 TSRA SCT050CB
11:00 am
V
77 °F 6¼ mi+ 3.000 ft Var Var 2 kt METAR LFBO 230900Z AUTO VRB02KT 9999 FEW007 BKN030 25/17 Q1010 TEMPO SHRA SCT040TCU FEW060CB
10:30 am
V
77 °F 6¼ mi+ - Var Var 2 kt METAR LFBO 230830Z AUTO VRB02KT 9999 FEW007 25/17 Q1010 TEMPO SHRA SCT040TCU FEW060CB
10:00 am
V
75 °F 6¼ mi+ - Var Var 2 kt METAR LFBO 230800Z AUTO VRB02KT 9999 FEW019 24/17 Q1010 NOSIG
9:30 am
V
72 °F 6¼ mi+ - Var Var 2 kt METAR LFBO 230730Z AUTO VRB02KT CAVOK 22/16 Q1010 NOSIG
9:00 am
V
70 °F 6¼ mi+ - Var Var 2 kt METAR LFBO 230700Z AUTO VRB02KT CAVOK 21/17 Q1010 NOSIG
8:30 am
V
68 °F 6¼ mi+ - Var Var 3 kt METAR LFBO 230630Z AUTO VRB03KT 9999 FEW011 20/17 Q1010 NOSIG
8:00 am
V
66 °F 6¼ mi+ - Var Var 2 kt METAR LFBO 230600Z AUTO VRB02KT CAVOK 19/17 Q1011 NOSIG
7:30 am
V
66 °F 6¼ mi+ - Var Var 2 kt METAR LFBO 230530Z AUTO VRB02KT CAVOK 19/16 Q1010 NOSIG
7:00 am
V
64 °F 6¼ mi+ - Var Var 2 kt METAR LFBO 230500Z AUTO VRB02KT CAVOK 18/16 Q1010 NOSIG
6:30 am
V
64 °F 6¼ mi+ - Var Var 2 kt METAR LFBO 230430Z AUTO VRB02KT CAVOK 18/16 Q1011 NOSIG
6:00 am
V
64 °F 6¼ mi+ - Var Var 3 kt METAR LFBO 230400Z AUTO VRB03KT CAVOK 18/16 Q1010 NOSIG
5:30 am
V
64 °F 6¼ mi+ - 290° 290° 4 kt METAR LFBO 230330Z AUTO 29004KT CAVOK 18/16 Q1011 NOSIG
5:00 am
V
64 °F 6¼ mi+ - Var Var 2 kt METAR LFBO 230300Z AUTO VRB02KT CAVOK 18/16 Q1011 NOSIG
4:30 am
V
66 °F 6¼ mi+ - 310° 310° 6 kt METAR LFBO 230230Z AUTO 31006KT CAVOK 19/16 Q1011 NOSIG
4:00 am
V
66 °F 6¼ mi+ - 260° 260° 1 kt METAR LFBO 230200Z AUTO 26001KT CAVOK 19/15 Q1011 NOSIG
3:30 am
V
68 °F 6¼ mi+ - 240° 240° 4 kt METAR LFBO 230130Z AUTO 24004KT 200V270 CAVOK 20/16 Q1012 NOSIG
3:00 am
V
68 °F 6¼ mi+ - 250° 250° 5 kt METAR LFBO 230100Z AUTO 25005KT CAVOK 20/16 Q1012 NOSIG
2:30 am
V
68 °F 6¼ mi+ - 270° 270° 7 kt METAR LFBO 230030Z AUTO 27007KT CAVOK 20/16 Q1012 NOSIG
2:00 am
V
70 °F 6¼ mi+ - 280° 280° 6 kt METAR LFBO 230000Z AUTO 28006KT CAVOK 21/16 Q1012 NOSIG
1:30 am
V
70 °F 6¼ mi+ - 270° 270° 6 kt METAR LFBO 222330Z AUTO 27006KT CAVOK 21/15 Q1012 NOSIG
1:00 am
V
70 °F 6¼ mi+ - 270° 270° 6 kt METAR LFBO 222300Z AUTO 27006KT 240V320 CAVOK 21/15 Q1012 NOSIG
12:30 am
V
70 °F 6¼ mi+ - 300° 300° 8 kt METAR LFBO 222230Z AUTO 30008KT CAVOK 21/15 Q1012 NOSIG
12:00 am
V
72 °F 6¼ mi+ - 300° 300° 8 kt METAR LFBO 222200Z AUTO 30008KT CAVOK 22/15 Q1012 NOSIG

22. Juni 2022

Uhrzeit Code Wetter Temp. Sichtweite Wolkendecke Wind METAR/SPECI
11:30 pm
V
72 °F 6¼ mi+ - 310° 310° 8 kt METAR LFBO 222130Z AUTO 31008KT CAVOK 22/14 Q1012 NOSIG
11:00 pm
V
73 °F 6¼ mi+ - 310° 310° 9 kt METAR LFBO 222100Z AUTO 31009KT CAVOK 23/14 Q1012 NOSIG
10:30 pm
V
75 °F 6¼ mi+ - 320° 320° 10 kt METAR LFBO 222030Z AUTO 32010KT CAVOK 24/15 Q1011 NOSIG
10:00 pm
V
75 °F 6¼ mi+ - 320° 320° 10 kt METAR LFBO 222000Z AUTO 32010KT CAVOK 24/15 Q1011 TEMPO SHRA FEW050CB
9:30 pm
V
77 °F 6¼ mi+ - 310° 310° 13 kt METAR LFBO 221930Z AUTO 31013KT CAVOK 25/15 Q1011 TEMPO SHRA FEW050CB
9:00 pm
V
79 °F 6¼ mi+ - 320° 320° 13 kt METAR LFBO 221900Z AUTO 32013KT CAVOK 26/15 Q1010 TEMPO SHRA FEW050CB
8:30 pm
V
81 °F 6¼ mi+ - 330° 330° 9 kt METAR LFBO 221830Z AUTO 33009KT 9999 //////TCU 27/13 Q1009 TEMPO SHRA FEW050CB
7:30 pm
V
82 °F 6¼ mi+ - 340° 340° 8 kt METAR LFBO 221730Z AUTO 34008KT CAVOK 28/14 Q1009 TEMPO SHRA SCT050CB
7:00 pm
V
84 °F 6¼ mi+ - 320° 320° 8 kt METAR LFBO 221700Z AUTO 32008KT 270V350 CAVOK 29/14 Q1009 TEMPO SHRA SCT050CB
Ältere Daten

Laden Sie unsere App herunter

Einfacher Zugriff auf das gesamte Flugwetter auf Ihrem Mobiltelefon und Tablet.
Mit vielen Funktionen, die auf der Website nicht verfügbar sind, wie Offline-Unterstützung und eine persönliche Flughafenliste.

Wir und Dritte verfolgen dein Internetverhalten auf unserer Website mit Cookies. Wenn du fortfährst, gehen wir davon aus, dass du mit unserer Cookie-Richtlinie einverstanden bist. Mehr erfahren